createdAt,value
2018-12-04T00:02:18.448Z,1.70
2018-12-04T00:04:46.685Z,2.23
2018-12-04T00:07:14.866Z,2.00
2018-12-04T00:09:43.098Z,1.97
2018-12-04T00:12:11.299Z,2.10
2018-12-04T00:14:39.563Z,2.00
2018-12-04T00:17:09.086Z,1.90
2018-12-04T00:19:37.309Z,1.80
2018-12-04T00:22:06.772Z,2.13
2018-12-04T00:24:35.015Z,1.80
2018-12-04T00:27:03.226Z,2.10
2018-12-04T00:29:31.447Z,1.77
2018-12-04T00:32:00.994Z,1.73
2018-12-04T00:34:29.217Z,2.07
2018-12-04T00:36:57.454Z,1.70
2018-12-04T00:39:26.175Z,1.60
2018-12-04T00:41:55.726Z,1.37
2018-12-04T00:44:23.913Z,1.47
2018-12-04T00:46:53.470Z,1.33
2018-12-04T00:49:21.654Z,1.10
2018-12-04T00:51:51.405Z,1.17
2018-12-04T00:54:19.599Z,1.00
2018-12-04T00:56:47.819Z,0.90
2018-12-04T00:59:16.014Z,1.10
2018-12-04T01:01:44.249Z,1.03
2018-12-04T01:04:12.441Z,1.40
2018-12-04T01:06:40.762Z,1.60
2018-12-04T01:09:09.702Z,1.90
2018-12-04T01:11:39.955Z,1.70
2018-12-04T01:14:08.154Z,1.73
2018-12-04T01:16:36.505Z,1.83
2018-12-04T01:19:04.689Z,1.97
2018-12-04T01:21:34.929Z,2.00
2018-12-04T01:24:03.127Z,2.40
2018-12-04T01:26:31.358Z,3.10
2018-12-04T01:28:59.554Z,2.40
2018-12-04T01:31:29.118Z,2.33
2018-12-04T01:33:57.312Z,2.77
2018-12-04T01:36:25.821Z,2.70
2018-12-04T01:38:54.016Z,3.27
2018-12-04T01:41:23.642Z,2.90
2018-12-04T01:43:51.888Z,2.80
2018-12-04T01:46:21.409Z,3.37
2018-12-04T01:48:49.623Z,3.07
2018-12-04T01:51:17.841Z,3.20
2018-12-04T01:53:46.052Z,3.07
2018-12-04T01:56:15.477Z,2.90
2018-12-04T01:58:43.824Z,3.03
2018-12-04T02:01:13.252Z,3.23
2018-12-04T02:03:41.602Z,3.07
2018-12-04T02:06:11.128Z,2.80
2018-12-04T02:08:39.348Z,3.00
2018-12-04T02:11:07.658Z,2.80
2018-12-04T02:13:35.878Z,3.47
2018-12-04T02:16:04.099Z,2.20
2018-12-04T02:18:32.446Z,2.93
2018-12-04T02:21:00.650Z,2.33
2018-12-04T02:23:28.872Z,2.70
2018-12-04T02:25:57.077Z,2.13
2018-12-04T02:28:27.316Z,2.43
2018-12-04T02:30:57.543Z,2.10
2018-12-04T02:33:27.784Z,2.17
2018-12-04T02:35:58.023Z,2.30
2018-12-04T02:38:28.282Z,3.10
2018-12-04T02:40:57.833Z,2.30
2018-12-04T02:43:26.059Z,2.73
2018-12-04T02:45:54.242Z,2.33
2018-12-04T02:48:22.583Z,2.50
2018-12-04T02:50:50.800Z,2.27
2018-12-04T02:53:19.026Z,2.47
2018-12-04T02:55:47.220Z,1.80
2018-12-04T02:58:15.440Z,2.37
2018-12-04T03:00:44.194Z,2.50
2018-12-04T03:03:12.420Z,2.20
2018-12-04T03:05:41.979Z,2.30
2018-12-04T03:08:11.329Z,2.37
2018-12-04T03:10:40.906Z,2.50
2018-12-04T03:13:09.122Z,3.27
2018-12-04T03:15:37.356Z,2.50
2018-12-04T03:18:07.577Z,2.50
2018-12-04T03:20:37.062Z,2.50
2018-12-04T03:23:05.287Z,2.23
2018-12-04T03:25:34.735Z,1.97
2018-12-04T03:28:02.934Z,2.67
2018-12-04T03:30:32.598Z,2.47
2018-12-04T03:33:00.804Z,2.40
2018-12-04T03:35:30.970Z,2.67
2018-12-04T03:37:59.161Z,2.20
2018-12-04T03:40:28.705Z,2.00
2018-12-04T03:42:57.443Z,2.40
2018-12-04T03:45:25.657Z,2.07
2018-12-04T03:47:54.028Z,1.97
2018-12-04T03:50:22.263Z,2.30
2018-12-04T03:52:51.785Z,1.60
2018-12-04T03:55:20.012Z,1.70
2018-12-04T03:57:49.437Z,1.83
2018-12-04T04:00:17.786Z,1.80
2018-12-04T04:02:47.406Z,1.63
2018-12-04T04:05:17.769Z,2.03
2018-12-04T04:07:47.192Z,1.87
2018-12-04T04:10:17.171Z,2.30
2018-12-04T04:12:46.870Z,1.80
2018-12-04T04:15:15.745Z,1.80
2018-12-04T04:17:45.270Z,1.90
2018-12-04T04:20:13.494Z,1.80
2018-12-04T04:22:43.457Z,1.80
2018-12-04T04:25:11.817Z,1.63
2018-12-04T04:27:41.386Z,2.00
2018-12-04T04:30:09.656Z,2.10
2018-12-04T04:32:39.389Z,1.80
2018-12-04T04:35:08.558Z,1.70
2018-12-04T04:37:38.275Z,2.27
2018-12-04T04:40:06.702Z,3.10
2018-12-04T04:42:36.124Z,1.93
2018-12-04T04:45:04.751Z,1.60
2018-12-04T04:47:34.511Z,1.63
2018-12-04T04:50:02.906Z,1.93
2018-12-04T04:52:32.878Z,1.93
2018-12-04T04:55:01.067Z,1.53
2018-12-04T04:57:31.346Z,1.60
2018-12-04T04:59:59.556Z,1.60
2018-12-04T05:02:27.777Z,1.67
2018-12-04T05:04:55.958Z,1.80
2018-12-04T05:07:25.615Z,1.70
2018-12-04T05:09:53.870Z,1.77
2018-12-04T05:12:22.100Z,1.50
2018-12-04T05:14:50.296Z,2.03
2018-12-04T05:17:18.565Z,1.70
2018-12-04T05:19:46.761Z,1.67
2018-12-04T05:22:14.987Z,1.50
2018-12-04T05:24:43.181Z,1.70
2018-12-04T05:27:13.485Z,1.90
2018-12-04T05:29:41.866Z,1.50
2018-12-04T05:32:11.431Z,1.80
2018-12-04T05:34:39.620Z,1.70
2018-12-04T05:37:09.290Z,1.93
2018-12-04T05:39:37.502Z,1.70
2018-12-04T05:42:07.157Z,1.90
2018-12-04T05:44:35.471Z,2.20
2018-12-04T05:47:03.712Z,1.50
2018-12-04T05:49:31.923Z,2.10
2018-12-04T05:52:01.387Z,1.77
2018-12-04T05:54:29.606Z,2.03
2018-12-04T05:56:59.130Z,2.43
2018-12-04T05:59:27.356Z,1.97
2018-12-04T06:01:56.787Z,1.80
2018-12-04T06:04:25.023Z,1.87
2018-12-04T06:06:54.550Z,1.90
2018-12-04T06:09:22.803Z,2.40
2018-12-04T06:11:51.355Z,3.83
2018-12-04T06:14:19.598Z,2.60
2018-12-04T06:16:49.023Z,4.00
2018-12-04T06:19:17.459Z,2.57
2018-12-04T06:21:47.210Z,2.70
2018-12-04T06:24:15.451Z,2.53
2018-12-04T06:26:45.078Z,2.57
2018-12-04T06:29:13.302Z,2.53
2018-12-04T06:31:42.718Z,2.40
2018-12-04T06:34:10.949Z,2.77
2018-12-04T06:36:39.159Z,2.77
2018-12-04T06:39:07.381Z,2.30
2018-12-04T06:41:37.597Z,2.57
2018-12-04T06:44:05.813Z,2.73
2018-12-04T06:46:34.006Z,2.47
2018-12-04T06:49:02.258Z,3.10
2018-12-04T06:51:30.864Z,3.00
2018-12-04T06:53:59.071Z,2.60
2018-12-04T06:56:28.643Z,2.77
2018-12-04T06:58:56.849Z,2.77
2018-12-04T07:01:25.536Z,2.70
2018-12-04T07:03:53.744Z,2.63
2018-12-04T07:06:21.971Z,2.70
2018-12-04T07:08:50.169Z,2.83
2018-12-04T07:11:18.399Z,2.40
2018-12-04T07:13:46.582Z,3.00
2018-12-04T07:16:14.822Z,3.50
2018-12-04T07:18:43.046Z,3.50
2018-12-04T07:21:12.797Z,3.00
2018-12-04T07:23:41.010Z,4.40
2018-12-04T07:26:09.227Z,2.70
2018-12-04T07:28:37.438Z,3.33
2018-12-04T07:31:05.698Z,2.10
2018-12-04T07:33:33.903Z,2.20
2018-12-04T07:36:02.141Z,2.53
2018-12-04T07:38:30.350Z,1.93
2018-12-04T07:40:59.902Z,2.03
2018-12-04T07:43:28.109Z,2.07
2018-12-04T07:45:56.342Z,1.90
2018-12-04T07:48:24.993Z,2.00
2018-12-04T07:50:53.273Z,2.40
2018-12-04T07:53:21.472Z,2.70
2018-12-04T07:55:49.718Z,2.13
2018-12-04T07:58:17.918Z,3.30
2018-12-04T08:00:47.003Z,2.47
2018-12-04T08:03:15.557Z,2.90
2018-12-04T08:05:43.761Z,2.70
2018-12-04T08:08:11.978Z,3.07
2018-12-04T08:10:40.178Z,2.70
2018-12-04T08:13:08.413Z,2.30
2018-12-04T08:15:37.943Z,2.30
2018-12-04T08:18:06.189Z,3.20
2018-12-04T08:20:34.509Z,3.70
2018-12-04T08:23:02.746Z,2.73
2018-12-04T08:25:32.182Z,2.80
2018-12-04T08:28:00.545Z,3.10
2018-12-04T08:30:28.868Z,2.80
2018-12-04T08:32:57.108Z,3.23
2018-12-04T08:35:25.322Z,2.60
2018-12-04T08:37:53.602Z,3.80
2018-12-04T08:40:21.794Z,3.23
2018-12-04T08:42:51.245Z,3.00
2018-12-04T08:45:19.451Z,3.67
2018-12-04T08:47:49.003Z,3.13
2018-12-04T08:50:17.203Z,2.70
2018-12-04T08:52:46.877Z,3.50
2018-12-04T08:55:15.218Z,3.53
2018-12-04T08:57:44.938Z,3.00
2018-12-04T09:00:13.179Z,3.20
2018-12-04T09:02:42.786Z,2.60
2018-12-04T09:05:11.041Z,2.67
2018-12-04T09:07:40.884Z,2.70
2018-12-04T09:10:09.130Z,2.30
2018-12-04T09:12:38.654Z,2.60
2018-12-04T09:15:06.902Z,2.17
2018-12-04T09:17:36.529Z,2.87
2018-12-04T09:20:06.684Z,2.60
2018-12-04T09:22:36.610Z,2.70
2018-12-04T09:25:04.868Z,3.40
2018-12-04T09:27:34.498Z,3.80
2018-12-04T09:30:02.889Z,1.40
2018-12-04T09:32:32.903Z,1.30
2018-12-04T09:35:01.142Z,1.23
2018-12-04T09:37:30.871Z,1.20
2018-12-04T09:39:59.105Z,1.30
2018-12-04T09:42:27.305Z,1.20
2018-12-04T09:44:55.535Z,1.30
2018-12-04T09:47:24.955Z,1.20
2018-12-04T09:49:53.189Z,1.50
2018-12-04T09:52:21.375Z,1.70
2018-12-04T09:54:49.618Z,1.40
2018-12-04T09:57:19.142Z,1.50
2018-12-04T09:59:47.345Z,1.50
2018-12-04T10:02:15.585Z,1.40
2018-12-04T10:04:44.163Z,1.27
2018-12-04T10:07:13.724Z,1.87
2018-12-04T10:09:42.338Z,2.80
2018-12-04T10:12:10.557Z,1.67
2018-12-04T10:14:38.772Z,1.90
2018-12-04T10:17:07.019Z,1.50
2018-12-04T10:19:35.222Z,1.30
2018-12-04T10:22:04.805Z,1.27
2018-12-04T10:24:33.015Z,1.40
2018-12-04T10:27:01.264Z,1.30
2018-12-04T10:29:29.590Z,1.30
2018-12-04T10:31:58.157Z,1.70
2018-12-04T10:34:26.350Z,1.90
2018-12-04T10:36:54.606Z,1.60
2018-12-04T10:39:22.829Z,1.90
2018-12-04T10:41:51.177Z,1.57
2018-12-04T10:44:19.388Z,1.50
2018-12-04T10:46:47.614Z,1.27
2018-12-04T10:49:15.810Z,1.23
2018-12-04T10:51:45.274Z,1.60
2018-12-04T10:54:13.470Z,1.43
2018-12-04T10:56:43.150Z,1.50
2018-12-04T10:59:11.349Z,1.80
2018-12-04T11:01:45.309Z,1.47
2018-12-04T11:04:13.498Z,1.50
2018-12-04T11:06:43.439Z,1.73
2018-12-04T11:09:11.670Z,3.20
2018-12-04T11:11:41.929Z,13.97
2018-12-04T11:14:10.122Z,2.00
2018-12-04T11:16:39.851Z,2.00
2018-12-04T11:19:08.056Z,2.37
2018-12-04T11:21:36.289Z,2.00
2018-12-04T11:24:04.493Z,2.33
2018-12-04T11:26:34.029Z,2.10
2018-12-04T11:29:02.698Z,2.27
2018-12-04T11:31:30.910Z,1.87
2018-12-04T11:33:59.159Z,2.03
2018-12-04T11:36:27.373Z,1.80
2018-12-04T11:38:55.589Z,1.90
2018-12-04T11:41:23.788Z,2.80
2018-12-04T11:43:52.023Z,2.50
2018-12-04T11:46:21.643Z,1.90
2018-12-04T11:48:49.863Z,1.80
2018-12-04T11:51:19.392Z,2.23
2018-12-04T11:53:47.621Z,1.70
2018-12-04T11:56:17.615Z,1.60
2018-12-04T11:58:45.843Z,2.03
2018-12-04T12:01:16.043Z,2.07
2018-12-04T12:03:44.414Z,1.97
2018-12-04T12:06:14.498Z,2.20
2018-12-04T12:08:42.866Z,2.60
2018-12-04T12:11:11.074Z,2.60
2018-12-04T12:13:39.285Z,2.10
2018-12-04T12:16:08.711Z,1.80
2018-12-04T12:18:36.933Z,2.00
2018-12-04T12:21:05.139Z,1.70
2018-12-04T12:23:33.370Z,1.90
2018-12-04T12:26:01.575Z,2.00
2018-12-04T12:28:29.930Z,2.20
2018-12-04T12:30:58.167Z,3.00
2018-12-04T12:33:26.393Z,2.00
2018-12-04T12:35:56.310Z,2.03
2018-12-04T12:38:24.538Z,3.27
2018-12-04T12:40:52.738Z,2.73
2018-12-04T12:43:20.954Z,4.20
2018-12-04T12:45:49.154Z,3.10
2018-12-04T12:48:17.401Z,19.40
2018-12-04T12:50:45.611Z,10.67
2018-12-04T12:53:13.810Z,6.80
2018-12-04T12:55:44.542Z,4.80
2018-12-04T12:58:12.806Z,5.80
2018-12-04T13:00:42.582Z,6.50
2018-12-04T13:03:11.703Z,4.40
2018-12-04T13:05:39.951Z,3.33
2018-12-04T13:08:08.294Z,3.77
2018-12-04T13:10:36.554Z,3.30
2018-12-04T13:13:04.779Z,2.30
2018-12-04T13:15:34.231Z,2.53
2018-12-04T13:18:02.559Z,3.07
2018-12-04T13:20:30.783Z,2.37
2018-12-04T13:22:59.018Z,2.00
2018-12-04T13:25:28.575Z,2.03
2018-12-04T13:27:56.762Z,2.17
2018-12-04T13:30:25.113Z,2.00
2018-12-04T13:32:53.796Z,2.37
2018-12-04T13:35:22.215Z,2.57
2018-12-04T13:37:51.639Z,3.00
2018-12-04T13:40:19.906Z,2.20
2018-12-04T13:42:49.446Z,2.67
2018-12-04T13:45:17.694Z,2.37
2018-12-04T13:47:47.162Z,2.00
2018-12-04T13:50:15.419Z,2.73
2018-12-04T13:52:45.059Z,2.40
2018-12-04T13:55:13.290Z,2.10
2018-12-04T13:57:43.237Z,1.93
2018-12-04T14:00:11.609Z,2.20
2018-12-04T14:02:41.844Z,1.90
2018-12-04T14:05:10.214Z,4.57
2018-12-04T14:07:39.787Z,4.50
2018-12-04T14:10:08.127Z,3.60
2018-12-04T14:12:38.170Z,1.90
2018-12-04T14:15:06.578Z,2.00
2018-12-04T14:17:36.055Z,1.80
2018-12-04T14:20:06.105Z,1.80
2018-12-04T14:22:35.784Z,2.57
2018-12-04T14:25:04.007Z,1.90
2018-12-04T14:27:33.891Z,1.60
2018-12-04T14:30:02.118Z,1.80
2018-12-04T14:32:32.507Z,2.13
2018-12-04T14:35:01.270Z,1.60
2018-12-04T14:37:31.659Z,1.63
2018-12-04T14:39:59.873Z,1.83
2018-12-04T14:42:28.230Z,2.20
2018-12-04T14:44:56.716Z,2.13
2018-12-04T14:47:26.438Z,2.40
2018-12-04T14:49:54.762Z,2.00
2018-12-04T14:52:24.361Z,1.90
2018-12-04T14:54:52.792Z,2.47
2018-12-04T14:57:21.181Z,2.10
2018-12-04T14:59:49.523Z,3.70
2018-12-04T15:02:17.821Z,3.80
2018-12-04T15:04:46.849Z,4.83
2018-12-04T15:07:15.373Z,5.77
2018-12-04T15:09:43.716Z,5.20
2018-12-04T15:12:11.985Z,5.40
2018-12-04T15:14:40.343Z,3.57
2018-12-04T15:17:10.032Z,2.97
2018-12-04T15:19:38.274Z,2.47
2018-12-04T15:22:07.836Z,3.13
2018-12-04T15:24:36.077Z,2.37
2018-12-04T15:27:04.301Z,2.60
2018-12-04T15:29:32.670Z,2.40
2018-12-04T15:32:02.944Z,2.70
2018-12-04T15:34:31.174Z,3.33
2018-12-04T15:36:59.438Z,3.00
2018-12-04T15:39:27.683Z,3.37
2018-12-04T15:41:56.148Z,2.73
2018-12-04T15:44:24.454Z,3.63
2018-12-04T15:46:54.100Z,3.93
2018-12-04T15:49:22.350Z,4.20
2018-12-04T15:51:50.543Z,4.10
2018-12-04T15:54:18.926Z,7.30
2018-12-04T15:56:47.242Z,2.77
2018-12-04T15:59:15.461Z,2.63
2018-12-04T16:01:43.694Z,2.60
2018-12-04T16:04:11.930Z,2.30
2018-12-04T16:06:41.451Z,2.80
2018-12-04T16:09:09.695Z,2.20
2018-12-04T16:11:39.943Z,1.97
2018-12-04T16:14:08.208Z,2.70
2018-12-04T16:16:36.470Z,3.33
2018-12-04T16:19:04.718Z,5.50
2018-12-04T16:21:33.046Z,9.17
2018-12-04T16:24:03.466Z,14.20
2018-12-04T16:26:31.683Z,17.00
2018-12-04T16:29:00.058Z,18.47
2018-12-04T16:31:28.613Z,14.10
2018-12-04T16:33:56.862Z,12.03
2018-12-04T16:36:26.348Z,7.07
2018-12-04T16:38:54.589Z,7.63
2018-12-04T16:41:22.789Z,5.90
2018-12-04T16:43:51.025Z,7.63
2018-12-04T16:46:19.260Z,6.20
2018-12-04T16:48:47.529Z,6.40
2018-12-04T16:51:16.965Z,6.93
2018-12-04T16:53:45.287Z,6.30
2018-12-04T16:56:14.821Z,6.57
2018-12-04T16:58:43.146Z,6.83
2018-12-04T17:01:11.478Z,7.60
2018-12-04T17:03:39.689Z,16.63
2018-12-04T17:06:07.926Z,39.80
2018-12-04T17:08:36.138Z,24.13
2018-12-04T17:11:05.703Z,19.07
2018-12-04T17:13:33.934Z,22.27
2018-12-04T17:16:02.299Z,17.17
2018-12-04T17:18:37.448Z,18.90
2018-12-04T17:21:00.771Z,13.60
2018-12-04T17:23:29.007Z,9.57
2018-12-04T17:25:58.479Z,12.07
2018-12-04T17:28:26.714Z,6.20
2018-12-04T17:30:56.202Z,6.83
2018-12-04T17:33:24.419Z,12.70
2018-12-04T17:35:52.797Z,13.50
2018-12-04T17:38:21.006Z,10.23
2018-12-04T17:40:50.569Z,9.80
2018-12-04T17:43:18.789Z,10.67
2018-12-04T17:45:47.029Z,19.70
2018-12-04T17:48:15.362Z,12.90
2018-12-04T17:50:44.826Z,8.90
2018-12-04T17:53:13.073Z,8.53
2018-12-04T17:55:42.637Z,11.17
2018-12-04T17:58:10.870Z,10.20
2018-12-04T18:00:41.154Z,14.33
2018-12-04T18:03:09.478Z,9.93
2018-12-04T18:05:39.050Z,6.00
2018-12-04T18:08:07.475Z,4.90
2018-12-04T18:10:37.155Z,6.90
2018-12-04T18:13:05.786Z,7.90
2018-12-04T18:15:34.117Z,8.70
2018-12-04T18:18:02.397Z,9.43
2018-12-04T18:20:30.645Z,14.10
2018-12-04T18:22:58.883Z,19.10
2018-12-04T18:25:27.112Z,17.30
2018-12-04T18:27:55.437Z,18.20
2018-12-04T18:30:23.666Z,17.80
2018-12-04T18:32:51.918Z,13.70
2018-12-04T18:35:21.451Z,11.33
2018-12-04T18:37:51.127Z,10.37
2018-12-04T18:40:19.343Z,10.07
2018-12-04T18:42:49.307Z,8.70
2018-12-04T18:45:17.538Z,8.13
2018-12-04T18:47:47.179Z,11.20
2018-12-04T18:50:15.477Z,11.67
2018-12-04T18:52:45.698Z,9.80
2018-12-04T18:57:54.334Z,14.07
2018-12-04T19:00:22.537Z,15.90
2018-12-04T19:02:50.805Z,15.20
2018-12-04T19:05:20.535Z,15.20
2018-12-04T19:07:50.192Z,13.67
2018-12-04T19:10:18.421Z,13.63
2018-12-04T19:12:47.890Z,13.90
2018-12-04T19:15:16.101Z,10.00
2018-12-04T19:17:46.103Z,7.80
2018-12-04T19:20:14.497Z,7.37
2018-12-04T19:22:44.071Z,7.17
2018-12-04T19:25:12.312Z,11.27
2018-12-04T19:27:41.878Z,12.30
2018-12-04T19:30:11.552Z,10.10
2018-12-04T19:32:41.210Z,9.20
2018-12-04T19:35:09.910Z,9.33
2018-12-04T19:37:39.371Z,11.27
2018-12-04T19:40:08.718Z,11.27
2018-12-04T19:42:40.392Z,10.17
2018-12-04T19:45:08.944Z,6.50
2018-12-04T19:47:38.642Z,7.30
2018-12-04T19:50:07.376Z,6.57
2018-12-04T19:52:37.519Z,7.00
2018-12-04T19:57:41.517Z,5.50
2018-12-04T20:00:10.011Z,4.60
2018-12-04T20:02:40.270Z,4.93
2018-12-04T20:05:08.661Z,4.53
2018-12-04T20:07:38.386Z,4.60
2018-12-04T20:10:06.812Z,4.63
2018-12-04T20:12:36.698Z,5.33
2018-12-04T20:15:05.121Z,6.30
2018-12-04T20:17:34.955Z,7.47
2018-12-04T20:20:04.457Z,7.70
2018-12-04T20:22:34.382Z,7.30
2018-12-04T20:25:02.898Z,10.20
2018-12-04T20:27:32.903Z,6.93
2018-12-04T20:30:01.712Z,6.47
2018-12-04T20:32:32.022Z,6.17
2018-12-04T20:35:00.491Z,5.90
2018-12-04T20:37:30.843Z,5.70
2018-12-04T20:39:59.444Z,5.80
2018-12-04T20:42:27.224Z,6.50
2018-12-04T20:44:57.715Z,10.70
2018-12-04T20:47:27.721Z,9.90
2018-12-04T20:49:56.387Z,8.33
2018-12-04T20:52:26.427Z,7.60
2018-12-04T20:54:55.137Z,6.83
2018-12-04T20:57:24.979Z,7.10
2018-12-04T20:59:53.597Z,7.00
2018-12-04T21:02:23.460Z,7.00
2018-12-04T21:04:51.957Z,6.97
2018-12-04T21:07:20.374Z,6.33
2018-12-04T21:09:48.734Z,7.00
2018-12-04T21:12:17.136Z,6.77
2018-12-04T21:14:45.597Z,6.30
2018-12-04T21:17:15.564Z,6.30
2018-12-04T21:19:44.034Z,5.70
2018-12-04T21:22:13.663Z,6.93
2018-12-04T21:24:42.014Z,8.80
2018-12-04T21:27:15.965Z,9.30
2018-12-04T21:29:50.150Z,10.35
2018-12-04T21:32:24.183Z,10.25
2018-12-04T21:49:50.799Z,7.60
2018-12-04T21:52:19.050Z,8.70
2018-12-04T21:54:47.300Z,8.58
2018-12-04T21:57:16.847Z,9.30
2018-12-04T21:59:45.232Z,8.60
2018-12-04T22:02:14.766Z,8.23
2018-12-04T22:04:43.207Z,13.40
2018-12-04T22:07:11.461Z,9.93
2018-12-04T22:09:39.790Z,9.35
2018-12-04T22:12:09.799Z,8.58
2018-12-04T22:14:38.100Z,8.95
2018-12-04T22:17:06.362Z,8.85
2018-12-04T22:19:34.579Z,9.13
2018-12-04T22:22:02.966Z,8.28
2018-12-04T22:24:31.303Z,9.53
2018-12-04T22:26:59.699Z,10.65
2018-12-04T22:29:27.930Z,10.15
2018-12-04T22:31:57.602Z,9.83
2018-12-04T22:34:25.838Z,12.07
2018-12-04T22:36:54.086Z,10.70
2018-12-04T22:39:22.323Z,10.70
2018-12-04T22:41:51.894Z,11.83
2018-12-04T22:44:20.225Z,10.03
2018-12-04T22:46:49.914Z,9.60
2018-12-04T22:49:18.197Z,13.15
2018-12-04T22:51:46.488Z,10.10
2018-12-04T22:54:14.739Z,13.10
2018-12-04T22:56:42.972Z,12.10
2018-12-04T22:59:11.214Z,15.23
2018-12-04T23:01:39.591Z,10.98
2018-12-04T23:04:08.442Z,29.00
2018-12-04T23:06:37.023Z,12.30
2018-12-04T23:09:07.680Z,11.10
2018-12-04T23:11:37.942Z,13.85
2018-12-04T23:14:06.312Z,11.25
2018-12-04T23:16:35.850Z,14.98
2018-12-04T23:19:04.207Z,23.67
2018-12-04T23:21:32.652Z,15.18
2018-12-04T23:24:01.014Z,19.75
2018-12-04T23:26:29.875Z,11.33
2018-12-04T23:28:58.248Z,11.63
2018-12-04T23:31:27.679Z,12.23
2018-12-04T23:33:56.049Z,10.23
2018-12-04T23:36:25.594Z,10.87
2018-12-04T23:38:53.860Z,13.30
2018-12-04T23:41:22.302Z,34.90
2018-12-04T23:43:50.551Z,25.40
2018-12-04T23:46:20.092Z,27.13
2018-12-04T23:48:48.457Z,60.65
2018-12-04T23:51:16.702Z,11.75
2018-12-04T23:53:45.064Z,13.58
2018-12-04T23:56:13.405Z,12.70
2018-12-04T23:58:41.782Z,16.62
